sensor_id;sensor_type;location;lat;lon;timestamp;pressure;altitude;pressure_sealevel;temperature;humidity
61710;BME280;73500;51.494;5.386;2023-11-19T00:00:47;100820.44;;;19.78;51.19
61710;BME280;73500;51.494;5.386;2023-11-19T00:03:12;100817.66;;;19.79;50.98
61710;BME280;73500;51.494;5.386;2023-11-19T00:05:38;100825.59;;;19.79;51.06
61710;BME280;73500;51.494;5.386;2023-11-19T00:08:04;100809.00;;;19.77;51.16
61710;BME280;73500;51.494;5.386;2023-11-19T00:10:31;100803.81;;;19.75;51.40
61710;BME280;73500;51.494;5.386;2023-11-19T00:12:56;100809.00;;;19.77;51.07
61710;BME280;73500;51.494;5.386;2023-11-19T00:15:22;100799.41;;;19.76;50.98
61710;BME280;73500;51.494;5.386;2023-11-19T00:17:49;100789.91;;;19.73;51.28
61710;BME280;73500;51.494;5.386;2023-11-19T00:20:16;100778.38;;;19.74;51.11
61710;BME280;73500;51.494;5.386;2023-11-19T00:22:42;100775.84;;;19.73;51.30
61710;BME280;73500;51.494;5.386;2023-11-19T00:25:08;100772.34;;;19.72;51.22
61710;BME280;73500;51.494;5.386;2023-11-19T00:27:34;100765.41;;;19.71;51.17
61710;BME280;73500;51.494;5.386;2023-11-19T00:30:00;100754.00;;;19.71;51.31
61710;BME280;73500;51.494;5.386;2023-11-19T00:32:25;100746.06;;;19.71;51.27
61710;BME280;73500;51.494;5.386;2023-11-19T00:34:50;100740.63;;;19.72;51.41
61710;BME280;73500;51.494;5.386;2023-11-19T00:37:16;100752.19;;;19.71;51.21
61710;BME280;73500;51.494;5.386;2023-11-19T00:39:42;100759.28;;;19.71;51.35
61710;BME280;73500;51.494;5.386;2023-11-19T00:42:07;100769.16;;;19.69;51.43
61710;BME280;73500;51.494;5.386;2023-11-19T00:44:33;100763.88;;;19.69;51.17
61710;BME280;73500;51.494;5.386;2023-11-19T00:46:58;100766.50;;;19.69;51.36
61710;BME280;73500;51.494;5.386;2023-11-19T00:49:25;100762.09;;;19.69;51.47
61710;BME280;73500;51.494;5.386;2023-11-19T00:51:50;100763.88;;;19.69;51.50
61710;BME280;73500;51.494;5.386;2023-11-19T00:54:15;100770.97;;;19.68;51.36
61710;BME280;73500;51.494;5.386;2023-11-19T00:56:40;100764.88;;;19.68;51.27
61710;BME280;73500;51.494;5.386;2023-11-19T00:59:06;100764.88;;;19.68;51.31
61710;BME280;73500;51.494;5.386;2023-11-19T01:01:31;100769.44;;;19.66;51.42
61710;BME280;73500;51.494;5.386;2023-11-19T01:03:56;100767.91;;;19.63;51.46
61710;BME280;73500;51.494;5.386;2023-11-19T01:06:31;100765.97;;;19.65;51.56
61710;BME280;73500;51.494;5.386;2023-11-19T01:08:56;100760.81;;;19.64;51.68
61710;BME280;73500;51.494;5.386;2023-11-19T01:11:23;100773.19;;;19.63;51.43
61710;BME280;73500;51.494;5.386;2023-11-19T01:13:49;100781.00;;;19.65;51.46
61710;BME280;73500;51.494;5.386;2023-11-19T01:16:15;100775.84;;;19.63;51.44
61710;BME280;73500;51.494;5.386;2023-11-19T01:18:40;100772.22;;;19.64;51.53
61710;BME280;73500;51.494;5.386;2023-11-19T01:21:05;100766.09;;;19.64;51.50
61710;BME280;73500;51.494;5.386;2023-11-19T01:23:31;100758.16;;;19.64;51.33
61710;BME280;73500;51.494;5.386;2023-11-19T01:25:57;100751.19;;;19.63;51.54
61710;BME280;73500;51.494;5.386;2023-11-19T01:28:23;100754.69;;;19.63;51.56
61710;BME280;73500;51.494;5.386;2023-11-19T01:30:50;100739.94;;;19.61;51.46
61710;BME280;73500;51.494;5.386;2023-11-19T01:33:16;100741.63;;;19.62;51.51
61710;BME280;73500;51.494;5.386;2023-11-19T01:35:41;100730.31;;;19.60;51.51
61710;BME280;73500;51.494;5.386;2023-11-19T01:38:06;100753.16;;;19.61;51.49
61710;BME280;73500;51.494;5.386;2023-11-19T01:40:33;100748.00;;;19.59;51.46
61710;BME280;73500;51.494;5.386;2023-11-19T01:42:59;100748.81;;;19.60;51.47
61710;BME280;73500;51.494;5.386;2023-11-19T01:45:29;100763.16;;;19.57;51.39
61710;BME280;73500;51.494;5.386;2023-11-19T01:47:56;100767.31;;;19.60;51.52
61710;BME280;73500;51.494;5.386;2023-11-19T01:50:22;100759.41;;;19.60;51.49
61710;BME280;73500;51.494;5.386;2023-11-19T01:52:50;100757.88;;;19.57;51.54
61710;BME280;73500;51.494;5.386;2023-11-19T01:55:17;100748.97;;;19.58;51.40
61710;BME280;73500;51.494;5.386;2023-11-19T01:57:43;100757.75;;;19.58;51.32
61710;BME280;73500;51.494;5.386;2023-11-19T02:00:09;100767.59;;;19.56;51.60
61710;BME280;73500;51.494;5.386;2023-11-19T02:02:39;100757.88;;;19.57;51.55
61710;BME280;73500;51.494;5.386;2023-11-19T02:05:05;100764.97;;;19.56;51.62
61710;BME280;73500;51.494;5.386;2023-11-19T02:07:31;100759.81;;;19.55;51.61
61710;BME280;73500;51.494;5.386;2023-11-19T02:09:57;100758.03;;;19.55;51.59
61710;BME280;73500;51.494;5.386;2023-11-19T02:12:25;100759.81;;;19.55;51.65
61710;BME280;73500;51.494;5.386;2023-11-19T02:14:51;100757.28;;;19.53;51.58
61710;BME280;73500;51.494;5.386;2023-11-19T02:17:27;100744.25;;;19.52;51.54
61710;BME280;73500;51.494;5.386;2023-11-19T02:19:53;100744.06;;;19.53;51.77
61710;BME280;73500;51.494;5.386;2023-11-19T02:22:18;100744.06;;;19.53;51.50
61710;BME280;73500;51.494;5.386;2023-11-19T02:24:45;100748.53;;;19.53;51.41
61710;BME280;73500;51.494;5.386;2023-11-19T02:27:17;100747.72;;;19.52;51.41
61710;BME280;73500;51.494;5.386;2023-11-19T02:29:45;100731.84;;;19.52;51.53
61710;BME280;73500;51.494;5.386;2023-11-19T02:32:12;100738.97;;;19.52;51.56
61710;BME280;73500;51.494;5.386;2023-11-19T02:34:38;100738.09;;;19.51;51.51
61710;BME280;73500;51.494;5.386;2023-11-19T02:37:03;100736.31;;;19.52;51.40
61710;BME280;73500;51.494;5.386;2023-11-19T02:39:30;100743.38;;;19.51;51.49
61710;BME280;73500;51.494;5.386;2023-11-19T02:41:56;100723.38;;;19.49;51.51
61710;BME280;73500;51.494;5.386;2023-11-19T02:44:21;100726.84;;;19.49;51.39
61710;BME280;73500;51.494;5.386;2023-11-19T02:46:47;100711.81;;;19.50;51.21
61710;BME280;73500;51.494;5.386;2023-11-19T02:49:13;100719.88;;;19.48;51.58
61710;BME280;73500;51.494;5.386;2023-11-19T02:51:39;100737.41;;;19.49;51.36
61710;BME280;73500;51.494;5.386;2023-11-19T02:54:04;100734.78;;;19.49;51.35
61710;BME280;73500;51.494;5.386;2023-11-19T02:56:29;100735.59;;;19.50;51.30
61710;BME280;73500;51.494;5.386;2023-11-19T02:58:59;100726.97;;;19.48;51.23
61710;BME280;73500;51.494;5.386;2023-11-19T03:01:28;100724.19;;;19.49;51.17
61710;BME280;73500;51.494;5.386;2023-11-19T03:03:59;100718.22;;;19.47;51.33
61710;BME280;73500;51.494;5.386;2023-11-19T03:06:26;100720.88;;;19.47;51.26
61710;BME280;73500;51.494;5.386;2023-11-19T03:08:52;100735.03;;;19.46;51.23
61710;BME280;73500;51.494;5.386;2023-11-19T03:11:17;100726.97;;;19.48;51.23
61710;BME280;73500;51.494;5.386;2023-11-19T03:13:43;100726.16;;;19.47;50.97
61710;BME280;73500;51.494;5.386;2023-11-19T03:16:08;100721.13;;;19.44;51.26
61710;BME280;73500;51.494;5.386;2023-11-19T03:18:34;100727.09;;;19.46;51.11
61710;BME280;73500;51.494;5.386;2023-11-19T03:20:59;100733.34;;;19.45;51.17
61710;BME280;73500;51.494;5.386;2023-11-19T03:23:25;100735.03;;;19.46;51.21
61710;BME280;73500;51.494;5.386;2023-11-19T03:25:52;100737.00;;;19.44;51.19
61710;BME280;73500;51.494;5.386;2023-11-19T03:28:18;100737.94;;;19.43;51.13
61710;BME280;73500;51.494;5.386;2023-11-19T03:30:43;100732.66;;;19.43;51.10
61710;BME280;73500;51.494;5.386;2023-11-19T03:33:08;100737.00;;;19.44;51.13
61710;BME280;73500;51.494;5.386;2023-11-19T03:35:33;100741.28;;;19.45;51.03
61710;BME280;73500;51.494;5.386;2023-11-19T03:37:59;100735.31;;;19.43;51.05
61710;BME280;73500;51.494;5.386;2023-11-19T03:40:24;100729.19;;;19.43;50.95
61710;BME280;73500;51.494;5.386;2023-11-19T03:42:50;100727.38;;;19.43;50.93
61710;BME280;73500;51.494;5.386;2023-11-19T03:45:15;100732.81;;;19.42;51.02
61710;BME280;73500;51.494;5.386;2023-11-19T03:47:41;100741.56;;;19.42;50.95
61710;BME280;73500;51.494;5.386;2023-11-19T03:50:07;100745.06;;;19.43;51.04
61710;BME280;73500;51.494;5.386;2023-11-19T03:52:33;100746.00;;;19.42;50.88
61710;BME280;73500;51.494;5.386;2023-11-19T03:54:58;100748.66;;;19.42;50.55
61710;BME280;73500;51.494;5.386;2023-11-19T03:57:24;100746.00;;;19.42;50.60
61710;BME280;73500;51.494;5.386;2023-11-19T03:59:49;100739.91;;;19.41;51.01
61710;BME280;73500;51.494;5.386;2023-11-19T04:02:15;100739.91;;;19.41;50.94
61710;BME280;73500;51.494;5.386;2023-11-19T04:04:41;100748.78;;;19.40;50.83
61710;BME280;73500;51.494;5.386;2023-11-19T04:07:07;100742.69;;;19.39;50.77
61710;BME280;73500;51.494;5.386;2023-11-19T04:09:32;100740.03;;;19.39;50.76
61710;BME280;73500;51.494;5.386;2023-11-19T04:11:58;100743.50;;;19.40;50.79
61710;BME280;73500;51.494;5.386;2023-11-19T04:14:24;100739.19;;;19.39;50.90
61710;BME280;73500;51.494;5.386;2023-11-19T04:16:49;100753.38;;;19.38;50.85
61710;BME280;73500;51.494;5.386;2023-11-19T04:19:16;100749.88;;;19.37;50.77
61710;BME280;73500;51.494;5.386;2023-11-19T04:21:41;100753.38;;;19.38;50.67
61710;BME280;73500;51.494;5.386;2023-11-19T04:24:08;100754.34;;;19.37;50.81
61710;BME280;73500;51.494;5.386;2023-11-19T04:26:33;100758.53;;;19.39;50.94
61710;BME280;73500;51.494;5.386;2023-11-19T04:28:59;100759.50;;;19.38;50.97
61710;BME280;73500;51.494;5.386;2023-11-19T04:31:29;100750.88;;;19.36;50.70
61710;BME280;73500;51.494;5.386;2023-11-19T04:33:54;100765.59;;;19.39;50.69
61710;BME280;73500;51.494;5.386;2023-11-19T04:36:20;100755.03;;;19.39;50.62
61710;BME280;73500;51.494;5.386;2023-11-19T04:38:49;100758.66;;;19.38;50.83
61710;BME280;73500;51.494;5.386;2023-11-19T04:41:14;100747.25;;;19.37;50.61
61710;BME280;73500;51.494;5.386;2023-11-19T04:43:39;100739.31;;;19.37;50.50
61710;BME280;73500;51.494;5.386;2023-11-19T04:46:05;100758.66;;;19.38;50.65
61710;BME280;73500;51.494;5.386;2023-11-19T04:48:30;100756.97;;;19.37;50.60
61710;BME280;73500;51.494;5.386;2023-11-19T04:50:55;100756.03;;;19.38;50.39
61710;BME280;73500;51.494;5.386;2023-11-19T04:53:21;100756.97;;;19.37;50.75
61710;BME280;73500;51.494;5.386;2023-11-19T04:55:46;100760.47;;;19.37;50.53
61710;BME280;73500;51.494;5.386;2023-11-19T04:58:12;100760.47;;;19.37;50.57
61710;BME280;73500;51.494;5.386;2023-11-19T05:00:38;100765.59;;;19.39;50.08
61710;BME280;73500;51.494;5.386;2023-11-19T05:03:03;100764.78;;;19.38;50.56
61710;BME280;73500;51.494;5.386;2023-11-19T05:05:29;100767.41;;;19.38;50.46
61710;BME280;73500;51.494;5.386;2023-11-19T05:07:54;100776.31;;;19.37;50.41
61710;BME280;73500;51.494;5.386;2023-11-19T05:10:20;100771.03;;;19.37;50.50
61710;BME280;73500;51.494;5.386;2023-11-19T05:12:45;100770.88;;;19.39;50.53
61710;BME280;73500;51.494;5.386;2023-11-19T05:15:10;100779.81;;;19.38;50.36
61710;BME280;73500;51.494;5.386;2023-11-19T05:17:37;100773.66;;;19.37;50.35
61710;BME280;73500;51.494;5.386;2023-11-19T05:20:02;100777.16;;;19.38;50.30
61710;BME280;73500;51.494;5.386;2023-11-19T05:22:28;100780.63;;;19.38;50.36
61710;BME280;73500;51.494;5.386;2023-11-19T05:24:53;100786.88;;;19.37;50.26
61710;BME280;73500;51.494;5.386;2023-11-19T05:27:19;100771.88;;;19.38;50.15
61710;BME280;73500;51.494;5.386;2023-11-19T05:29:44;100771.88;;;19.38;50.23
61710;BME280;73500;51.494;5.386;2023-11-19T05:32:10;100778.13;;;19.37;50.39
61710;BME280;73500;51.494;5.386;2023-11-19T05:34:35;100793.03;;;19.38;50.21
61710;BME280;73500;51.494;5.386;2023-11-19T05:37:01;100787.75;;;19.38;50.08
61710;BME280;73500;51.494;5.386;2023-11-19T05:39:27;100786.75;;;19.39;50.27
61710;BME280;73500;51.494;5.386;2023-11-19T05:41:53;100784.25;;;19.37;50.10
61710;BME280;73500;51.494;5.386;2023-11-19T05:44:18;100788.69;;;19.37;50.12
61710;BME280;73500;51.494;5.386;2023-11-19T05:46:44;100789.38;;;19.39;50.05
61710;BME280;73500;51.494;5.386;2023-11-19T05:49:11;100788.69;;;19.37;50.42
61710;BME280;73500;51.494;5.386;2023-11-19T05:51:37;100786.47;;;19.32;50.47
61710;BME280;73500;51.494;5.386;2023-11-19T05:54:04;100785.38;;;19.35;50.16
61710;BME280;73500;51.494;5.386;2023-11-19T05:56:31;100784.53;;;19.34;50.17
61710;BME280;73500;51.494;5.386;2023-11-19T05:58:58;100785.63;;;19.32;50.17
61710;BME280;73500;51.494;5.386;2023-11-19T06:01:26;100794.38;;;19.32;50.27
61710;BME280;73500;51.494;5.386;2023-11-19T06:03:51;100793.41;;;19.33;50.42
61710;BME280;73500;51.494;5.386;2023-11-19T06:06:17;100791.59;;;19.34;50.47
61710;BME280;73500;51.494;5.386;2023-11-19T06:08:42;100783.41;;;19.37;50.34
61710;BME280;73500;51.494;5.386;2023-11-19T06:11:10;100778.94;;;19.37;50.39
61710;BME280;73500;51.494;5.386;2023-11-19T06:13:39;100784.84;;;19.41;50.42
61710;BME280;73500;51.494;5.386;2023-11-19T06:16:05;100781.47;;;19.39;50.61
61710;BME280;73500;51.494;5.386;2023-11-19T06:18:30;100778.81;;;19.39;50.74
61710;BME280;73500;51.494;5.386;2023-11-19T06:20:56;100780.50;;;19.40;50.74
61710;BME280;73500;51.494;5.386;2023-11-19T06:23:21;100786.75;;;19.39;50.84
61710;BME280;73500;51.494;5.386;2023-11-19T06:25:47;100789.38;;;19.39;50.80
61710;BME280;73500;51.494;5.386;2023-11-19T06:28:12;100796.50;;;19.38;50.66
61710;BME280;73500;51.494;5.386;2023-11-19T06:30:38;100794.53;;;19.40;50.75
61710;BME280;73500;51.494;5.386;2023-11-19T06:33:04;100792.03;;;19.39;50.94
61710;BME280;73500;51.494;5.386;2023-11-19T06:35:29;100783.16;;;19.40;50.83
61710;BME280;73500;51.494;5.386;2023-11-19T06:38:01;100784.84;;;19.41;50.86
61710;BME280;73500;51.494;5.386;2023-11-19T06:40:26;100786.63;;;19.40;50.88
61710;BME280;73500;51.494;5.386;2023-11-19T06:42:52;100791.75;;;19.42;51.21
61710;BME280;73500;51.494;5.386;2023-11-19T06:45:17;100782.19;;;19.41;51.21
61710;BME280;73500;51.494;5.386;2023-11-19T06:47:42;100784.84;;;19.41;51.01
61710;BME280;73500;51.494;5.386;2023-11-19T06:50:08;100788.16;;;19.43;51.02
61710;BME280;73500;51.494;5.386;2023-11-19T06:52:34;100785.53;;;19.43;50.96
61710;BME280;73500;51.494;5.386;2023-11-19T06:55:00;100788.16;;;19.43;50.94
61710;BME280;73500;51.494;5.386;2023-11-19T06:57:25;100790.81;;;19.43;51.01
61710;BME280;73500;51.494;5.386;2023-11-19T06:59:50;100809.19;;;19.45;51.04
61710;BME280;73500;51.494;5.386;2023-11-19T07:02:16;100812.66;;;19.45;51.00
61710;BME280;73500;51.494;5.386;2023-11-19T07:04:41;100807.63;;;19.42;50.94
61710;BME280;73500;51.494;5.386;2023-11-19T07:07:07;100815.69;;;19.40;51.08
61710;BME280;73500;51.494;5.386;2023-11-19T07:09:32;100811.25;;;19.41;51.40
61710;BME280;73500;51.494;5.386;2023-11-19T07:11:58;100815.69;;;19.40;51.25
61710;BME280;73500;51.494;5.386;2023-11-19T07:14:25;100817.50;;;19.40;51.31
61710;BME280;73500;51.494;5.386;2023-11-19T07:16:50;100830.44;;;19.43;51.27
61710;BME280;73500;51.494;5.386;2023-11-19T07:19:15;100827.69;;;19.45;51.04
61710;BME280;73500;51.494;5.386;2023-11-19T07:21:41;100829.50;;;19.44;50.86
61710;BME280;73500;51.494;5.386;2023-11-19T07:24:12;100841.72;;;19.45;50.96
61710;BME280;73500;51.494;5.386;2023-11-19T07:26:42;100842.56;;;19.46;51.05
61710;BME280;73500;51.494;5.386;2023-11-19T07:29:07;100846.88;;;19.47;50.89
61710;BME280;73500;51.494;5.386;2023-11-19T07:31:32;100847.13;;;19.44;51.05
61710;BME280;73500;51.494;5.386;2023-11-19T07:33:58;100851.47;;;19.45;51.06
61710;BME280;73500;51.494;5.386;2023-11-19T07:36:23;100851.47;;;19.45;50.88
61710;BME280;73500;51.494;5.386;2023-11-19T07:38:48;100834.78;;;19.44;50.97
61710;BME280;73500;51.494;5.386;2023-11-19T07:41:13;100841.72;;;19.45;51.03
61710;BME280;73500;51.494;5.386;2023-11-19T07:43:39;100846.88;;;19.47;50.75
61710;BME280;73500;51.494;5.386;2023-11-19T07:46:10;100840.88;;;19.45;51.14
61710;BME280;73500;51.494;5.386;2023-11-19T07:48:36;100845.22;;;19.46;50.91
61710;BME280;73500;51.494;5.386;2023-11-19T07:51:02;100832.13;;;19.44;50.88
61710;BME280;73500;51.494;5.386;2023-11-19T07:53:27;100845.22;;;19.46;51.07
61710;BME280;73500;51.494;5.386;2023-11-19T07:55:53;100845.09;;;19.47;50.95
61710;BME280;73500;51.494;5.386;2023-11-19T07:58:18;100838.94;;;19.47;51.04
61710;BME280;73500;51.494;5.386;2023-11-19T08:00:43;100838.38;;;19.43;51.40
61710;BME280;73500;51.494;5.386;2023-11-19T08:03:09;100846.31;;;19.43;51.06
61710;BME280;73500;51.494;5.386;2023-11-19T08:05:34;100841.72;;;19.45;51.35
61710;BME280;73500;51.494;5.386;2023-11-19T08:07:59;100850.50;;;19.46;50.85
61710;BME280;73500;51.494;5.386;2023-11-19T08:10:25;100844.22;;;19.47;51.03
61710;BME280;73500;51.494;5.386;2023-11-19T08:12:50;100856.63;;;19.46;50.86
61710;BME280;73500;51.494;5.386;2023-11-19T08:15:15;100852.28;;;19.45;50.79
61710;BME280;73500;51.494;5.386;2023-11-19T08:17:41;100847.00;;;19.45;50.84
61710;BME280;73500;51.494;5.386;2023-11-19T08:20:07;100854.94;;;19.45;50.79
61710;BME280;73500;51.494;5.386;2023-11-19T08:22:36;100860.09;;;19.47;50.82
61710;BME280;73500;51.494;5.386;2023-11-19T08:25:01;100852.16;;;19.47;50.68
61710;BME280;73500;51.494;5.386;2023-11-19T08:27:27;100862.72;;;19.47;50.88
61710;BME280;73500;51.494;5.386;2023-11-19T08:29:54;100860.09;;;19.47;50.68
61710;BME280;73500;51.494;5.386;2023-11-19T08:32:25;100855.66;;;19.47;50.84
61710;BME280;73500;51.494;5.386;2023-11-19T08:34:50;100863.72;;;19.46;50.62
61710;BME280;73500;51.494;5.386;2023-11-19T08:37:16;100852.16;;;19.47;50.75
61710;BME280;73500;51.494;5.386;2023-11-19T08:39:48;100849.50;;;19.47;50.71
61710;BME280;73500;51.494;5.386;2023-11-19T08:42:14;100853.28;;;19.44;50.76
61710;BME280;73500;51.494;5.386;2023-11-19T08:44:39;100856.88;;;19.43;50.72
61710;BME280;73500;51.494;5.386;2023-11-19T08:47:08;100851.47;;;19.45;50.57
61710;BME280;73500;51.494;5.386;2023-11-19T08:49:33;100857.72;;;19.44;50.54
61710;BME280;73500;51.494;5.386;2023-11-19T08:51:59;100854.94;;;19.45;50.44
61710;BME280;73500;51.494;5.386;2023-11-19T08:54:24;100851.59;;;19.43;50.45
61710;BME280;73500;51.494;5.386;2023-11-19T08:56:49;100860.47;;;19.42;50.56
61710;BME280;73500;51.494;5.386;2023-11-19T08:59:15;100862.16;;;19.43;50.56
61710;BME280;73500;51.494;5.386;2023-11-19T09:01:41;100860.75;;;19.39;50.83
61710;BME280;73500;51.494;5.386;2023-11-19T09:04:07;100860.44;;;19.32;51.02
61710;BME280;73500;51.494;5.386;2023-11-19T09:06:32;100863.75;;;19.25;51.07
61710;BME280;73500;51.494;5.386;2023-11-19T09:08:58;100863.75;;;19.25;51.35
61710;BME280;73500;51.494;5.386;2023-11-19T09:11:27;100859.56;;;19.22;51.43
61710;BME280;73500;51.494;5.386;2023-11-19T09:13:52;100858.53;;;19.34;51.31
61710;BME280;73500;51.494;5.386;2023-11-19T09:16:18;100858.09;;;19.39;50.86
61710;BME280;73500;51.494;5.386;2023-11-19T09:18:44;100856.19;;;19.41;50.53
61710;BME280;73500;51.494;5.386;2023-11-19T09:21:12;100853.28;;;19.44;50.63
61710;BME280;73500;51.494;5.386;2023-11-19T09:23:37;100856.63;;;19.46;50.48
61710;BME280;73500;51.494;5.386;2023-11-19T09:26:05;100855.91;;;19.44;50.33
61710;BME280;73500;51.494;5.386;2023-11-19T09:28:31;100852.41;;;19.44;50.37
61710;BME280;73500;51.494;5.386;2023-11-19T09:30:56;100854.94;;;19.45;50.31
61710;BME280;73500;51.494;5.386;2023-11-19T09:33:21;100855.78;;;19.46;50.30
61710;BME280;73500;51.494;5.386;2023-11-19T09:35:46;100844.50;;;19.44;50.44
61710;BME280;73500;51.494;5.386;2023-11-19T09:38:14;100856.88;;;19.43;50.50
61710;BME280;73500;51.494;5.386;2023-11-19T09:40:39;100845.47;;;19.43;50.30
61710;BME280;73500;51.494;5.386;2023-11-19T09:43:05;100846.31;;;19.43;50.18
61710;BME280;73500;51.494;5.386;2023-11-19T09:45:32;100849.09;;;19.42;50.53
61710;BME280;73500;51.494;5.386;2023-11-19T09:48:04;100865.63;;;19.44;50.31
61710;BME280;73500;51.494;5.386;2023-11-19T09:50:29;100858.81;;;19.41;50.27
61710;BME280;73500;51.494;5.386;2023-11-19T09:52:56;100862.16;;;19.43;50.27
61710;BME280;73500;51.494;5.386;2023-11-19T09:55:21;100858.69;;;19.43;50.25
61710;BME280;73500;51.494;5.386;2023-11-19T09:57:47;100865.75;;;19.42;50.26
61710;BME280;73500;51.494;5.386;2023-11-19T10:00:14;100861.59;;;19.39;50.24
61710;BME280;73500;51.494;5.386;2023-11-19T10:02:40;100861.47;;;19.41;50.28
61710;BME280;73500;51.494;5.386;2023-11-19T10:05:07;100849.91;;;19.42;50.27
61710;BME280;73500;51.494;5.386;2023-11-19T10:07:33;100842.97;;;19.41;50.35
61710;BME280;73500;51.494;5.386;2023-11-19T10:10:00;100849.22;;;19.40;50.75
61710;BME280;73500;51.494;5.386;2023-11-19T10:12:26;100851.84;;;19.40;50.67
61710;BME280;73500;51.494;5.386;2023-11-19T10:14:53;100845.75;;;19.39;50.65
61710;BME280;73500;51.494;5.386;2023-11-19T10:17:21;100851.16;;;19.38;51.06
61710;BME280;73500;51.494;5.386;2023-11-19T10:19:46;100847.97;;;19.34;51.07
61710;BME280;73500;51.494;5.386;2023-11-19T10:22:11;100851.94;;;19.29;51.31
61710;BME280;73500;51.494;5.386;2023-11-19T10:24:37;100855.81;;;19.25;51.56
61710;BME280;73500;51.494;5.386;2023-11-19T10:27:07;100855.81;;;19.25;51.40
61710;BME280;73500;51.494;5.386;2023-11-19T10:29:36;100866.97;;;19.28;51.77
61710;BME280;73500;51.494;5.386;2023-11-19T10:32:03;100837.38;;;19.34;51.68
61710;BME280;73500;51.494;5.386;2023-11-19T10:34:29;100842.53;;;19.36;51.56
61710;BME280;73500;51.494;5.386;2023-11-19T10:36:55;100849.03;;;19.32;51.67
61710;BME280;73500;51.494;5.386;2023-11-19T10:39:20;100850.25;;;19.28;51.84
61710;BME280;73500;51.494;5.386;2023-11-19T10:41:47;100848.47;;;19.28;51.83
61710;BME280;73500;51.494;5.386;2023-11-19T10:44:12;100839.81;;;19.26;52.01
61710;BME280;73500;51.494;5.386;2023-11-19T10:46:41;100839.44;;;19.31;51.82
61710;BME280;73500;51.494;5.386;2023-11-19T10:49:07;100845.03;;;19.37;51.72
61710;BME280;73500;51.494;5.386;2023-11-19T10:51:33;100858.22;;;19.37;51.64
61710;BME280;73500;51.494;5.386;2023-11-19T10:54:02;100835.84;;;19.32;51.65
61710;BME280;73500;51.494;5.386;2023-11-19T10:56:33;100856.97;;;19.32;51.56
61710;BME280;73500;51.494;5.386;2023-11-19T10:58:59;100847.22;;;19.32;51.69
61710;BME280;73500;51.494;5.386;2023-11-19T11:01:29;100844.72;;;19.31;51.98
61710;BME280;73500;51.494;5.386;2023-11-19T11:03:59;100843.06;;;19.30;51.74
61710;BME280;73500;51.494;5.386;2023-11-19T11:06:26;100831.50;;;19.31;51.63
61710;BME280;73500;51.494;5.386;2023-11-19T11:08:52;100830.97;;;19.37;51.39
61710;BME280;73500;51.494;5.386;2023-11-19T11:11:18;100831.53;;;19.40;51.42
61710;BME280;73500;51.494;5.386;2023-11-19T11:13:47;100825.44;;;19.40;51.60
61710;BME280;73500;51.494;5.386;2023-11-19T11:16:13;100826.72;;;19.46;51.34
61710;BME280;73500;51.494;5.386;2023-11-19T11:18:39;100831.28;;;19.44;51.22
61710;BME280;73500;51.494;5.386;2023-11-19T11:21:14;100832.13;;;19.44;51.11
61710;BME280;73500;51.494;5.386;2023-11-19T11:29:49;100828.00;;;19.61;50.89
61710;BME280;73500;51.494;5.386;2023-11-19T11:32:27;100833.53;;;19.58;50.68
61710;BME280;73500;51.494;5.386;2023-11-19T11:35:23;100828.13;;;19.60;50.76
61710;BME280;73500;51.494;5.386;2023-11-19T11:37:55;100819.09;;;19.62;50.71
61710;BME280;73500;51.494;5.386;2023-11-19T11:40:23;100816.59;;;19.61;50.66
61710;BME280;73500;51.494;5.386;2023-11-19T11:42:48;100811.16;;;19.62;50.72
61710;BME280;73500;51.494;5.386;2023-11-19T11:45:16;100810.75;;;19.57;51.11
61710;BME280;73500;51.494;5.386;2023-11-19T11:50:08;100808.47;;;19.43;51.70
61710;BME280;73500;51.494;5.386;2023-11-19T11:52:34;100799.97;;;19.39;51.93
61710;BME280;73500;51.494;5.386;2023-11-19T11:55:04;100798.47;;;19.46;51.61
61710;BME280;73500;51.494;5.386;2023-11-19T11:57:36;100793.34;;;19.54;51.38
61710;BME280;73500;51.494;5.386;2023-11-19T12:00:02;100792.94;;;19.59;51.13
61710;BME280;73500;51.494;5.386;2023-11-19T12:02:30;100801.44;;;19.63;51.17
61710;BME280;73500;51.494;5.386;2023-11-19T12:04:56;100795.44;;;19.61;51.04
61710;BME280;73500;51.494;5.386;2023-11-19T12:07:23;100805.06;;;19.62;51.07
61710;BME280;73500;51.494;5.386;2023-11-19T12:09:53;100800.72;;;19.61;51.02
61710;BME280;73500;51.494;5.386;2023-11-19T12:12:32;100793.47;;;19.53;51.32
61710;BME280;73500;51.494;5.386;2023-11-19T12:20:03;100775.91;;;19.42;51.77
61710;BME280;73500;51.494;5.386;2023-11-19T12:22:30;100779.16;;;19.46;51.75
61710;BME280;73500;51.494;5.386;2023-11-19T12:24:56;100782.75;;;19.54;51.49
61710;BME280;73500;51.494;5.386;2023-11-19T12:27:21;100775.25;;;19.60;51.09
61710;BME280;73500;51.494;5.386;2023-11-19T12:29:47;100775.84;;;19.63;51.23
61710;BME280;73500;51.494;5.386;2023-11-19T12:32:13;100774.03;;;19.64;51.08
61710;BME280;73500;51.494;5.386;2023-11-19T12:34:38;100780.28;;;19.63;51.13
61710;BME280;73500;51.494;5.386;2023-11-19T12:37:04;100796.13;;;19.63;51.02
61710;BME280;73500;51.494;5.386;2023-11-19T12:39:30;100802.28;;;19.63;51.22
61710;BME280;73500;51.494;5.386;2023-11-19T12:41:56;100788.22;;;19.63;51.14
61710;BME280;73500;51.494;5.386;2023-11-19T12:44:24;100787.25;;;19.64;51.09
61710;BME280;73500;51.494;5.386;2023-11-19T12:47:03;100784.75;;;19.62;51.56
61710;BME280;73500;51.494;5.386;2023-11-19T12:49:29;100796.88;;;19.65;51.04
61710;BME280;73500;51.494;5.386;2023-11-19T12:51:54;100785.56;;;19.63;51.35
61710;BME280;73500;51.494;5.386;2023-11-19T12:54:20;100787.38;;;19.62;51.06
61710;BME280;73500;51.494;5.386;2023-11-19T12:56:52;100792.13;;;19.58;51.33
61710;BME280;73500;51.494;5.386;2023-11-19T12:59:18;100799.88;;;19.50;51.69